sensor_id;sensor_type;location;lat;lon;timestamp;pressure;altitude;pressure_sealevel;temperature;humidity
11038;BME280;5572;49.540;11.932;2022-09-01T00:02:00;98599.28;;;15.65;100.00
11038;BME280;5572;49.540;11.932;2022-09-01T00:04:34;98584.28;;;15.67;100.00
11038;BME280;5572;49.540;11.932;2022-09-01T00:07:01;98588.63;;;15.63;100.00
11038;BME280;5572;49.540;11.932;2022-09-01T00:09:27;98588.63;;;15.63;100.00
11038;BME280;5572;49.540;11.932;2022-09-01T00:11:54;98582.13;;;15.69;100.00
11038;BME280;5572;49.540;11.932;2022-09-01T00:14:24;98582.38;;;15.68;100.00
11038;BME280;5572;49.540;11.932;2022-09-01T00:16:53;98590.84;;;15.66;100.00
11038;BME280;5572;49.540;11.932;2022-09-01T00:19:20;98580.75;;;15.57;100.00
11038;BME280;5572;49.540;11.932;2022-09-01T00:21:47;98585.66;;;15.55;100.00
11038;BME280;5572;49.540;11.932;2022-09-01T00:24:15;98578.03;;;15.62;100.00
11038;BME280;5572;49.540;11.932;2022-09-01T00:26:43;98583.47;;;15.42;100.00
11038;BME280;5572;49.540;11.932;2022-09-01T00:29:10;98565.47;;;15.36;100.00
11038;BME280;5572;49.540;11.932;2022-09-01T00:31:37;98564.94;;;15.44;100.00
11038;BME280;5572;49.540;11.932;2022-09-01T00:34:06;98579.34;;;15.35;100.00
11038;BME280;5572;49.540;11.932;2022-09-01T00:36:33;98582.09;;;15.40;100.00
11038;BME280;5572;49.540;11.932;2022-09-01T00:39:00;98589.19;;;15.51;100.00
11038;BME280;5572;49.540;11.932;2022-09-01T00:41:28;98601.16;;;15.45;100.00
11038;BME280;5572;49.540;11.932;2022-09-01T00:43:58;98609.09;;;15.51;100.00
11038;BME280;5572;49.540;11.932;2022-09-01T00:46:27;98603.91;;;15.50;100.00
11038;BME280;5572;49.540;11.932;2022-09-01T00:48:56;98606.63;;;15.40;100.00
11038;BME280;5572;49.540;11.932;2022-09-01T00:51:26;98615.59;;;15.40;100.00
11038;BME280;5572;49.540;11.932;2022-09-01T00:53:53;98623.50;;;15.32;100.00
11038;BME280;5572;49.540;11.932;2022-09-01T00:56:22;98613.97;;;15.34;100.00
11038;BME280;5572;49.540;11.932;2022-09-01T00:58:50;98623.22;;;15.38;100.00
11038;BME280;5572;49.540;11.932;2022-09-01T01:01:18;98606.06;;;15.38;100.00
11038;BME280;5572;49.540;11.932;2022-09-01T01:03:45;98597.06;;;15.32;100.00
11038;BME280;5572;49.540;11.932;2022-09-01T01:06:13;98579.06;;;15.31;100.00
11038;BME280;5572;49.540;11.932;2022-09-01T01:08:44;98560.50;;;15.13;100.00
11038;BME280;5572;49.540;11.932;2022-09-01T01:11:24;98556.09;;;15.07;100.00
11038;BME280;5572;49.540;11.932;2022-09-01T01:13:53;98551.78;;;15.06;100.00
11038;BME280;5572;49.540;11.932;2022-09-01T01:16:22;98551.78;;;15.16;100.00
11038;BME280;5572;49.540;11.932;2022-09-01T01:18:49;98552.88;;;15.15;100.00
11038;BME280;5572;49.540;11.932;2022-09-01T01:21:19;98560.78;;;15.22;100.00
11038;BME280;5572;49.540;11.932;2022-09-01T01:26:39;98570.56;;;15.18;100.00
11038;BME280;5572;49.540;11.932;2022-09-01T01:29:06;98573.56;;;15.21;100.00
11038;BME280;5572;49.540;11.932;2022-09-01T01:31:34;98559.72;;;15.28;100.00
11038;BME280;5572;49.540;11.932;2022-09-01T01:34:00;98553.94;;;15.19;100.00
11038;BME280;5572;49.540;11.932;2022-09-01T01:36:31;98544.22;;;15.33;100.00
11038;BME280;5572;49.540;11.932;2022-09-01T01:39:02;98545.84;;;15.24;100.00
11038;BME280;5572;49.540;11.932;2022-09-01T01:41:30;98528.34;;;15.15;100.00
11038;BME280;5572;49.540;11.932;2022-09-01T01:44:00;98524.25;;;15.13;100.00
11038;BME280;5572;49.540;11.932;2022-09-01T01:46:28;98511.69;;;14.92;100.00
11038;BME280;5572;49.540;11.932;2022-09-01T01:48:55;98512.25;;;15.09;100.00
11038;BME280;5572;49.540;11.932;2022-09-01T01:51:22;98520.44;;;15.09;100.00
11038;BME280;5572;49.540;11.932;2022-09-01T01:53:51;98513.34;;;15.13;100.00
11038;BME280;5572;49.540;11.932;2022-09-01T01:56:17;98514.19;;;15.13;100.00
11038;BME280;5572;49.540;11.932;2022-09-01T01:58:44;98507.38;;;15.16;100.00
11038;BME280;5572;49.540;11.932;2022-09-01T02:01:12;98500.25;;;15.05;100.00
11038;BME280;5572;49.540;11.932;2022-09-01T02:03:41;98499.44;;;15.09;100.00
11038;BME280;5572;49.540;11.932;2022-09-01T02:06:09;98497.25;;;14.91;100.00
11038;BME280;5572;49.540;11.932;2022-09-01T02:08:37;98486.09;;;15.03;100.00
11038;BME280;5572;49.540;11.932;2022-09-01T02:11:06;98486.09;;;15.13;100.00
11038;BME280;5572;49.540;11.932;2022-09-01T02:13:33;98475.75;;;14.95;100.00
11038;BME280;5572;49.540;11.932;2022-09-01T02:16:02;98452.31;;;14.84;100.00
11038;BME280;5572;49.540;11.932;2022-09-01T02:18:33;98454.50;;;14.82;100.00
11038;BME280;5572;49.540;11.932;2022-09-01T02:21:01;98468.66;;;14.94;100.00
11038;BME280;5572;49.540;11.932;2022-09-01T02:23:27;98456.09;;;14.73;100.00
11038;BME280;5572;49.540;11.932;2022-09-01T02:25:57;98445.75;;;14.70;100.00
11038;BME280;5572;49.540;11.932;2022-09-01T02:28:25;98449.28;;;14.70;100.00
11038;BME280;5572;49.540;11.932;2022-09-01T02:30:53;98450.38;;;14.69;100.00
11038;BME280;5572;49.540;11.932;2022-09-01T02:33:22;98451.47;;;14.68;100.00
11038;BME280;5572;49.540;11.932;2022-09-01T02:35:53;98452.28;;;14.59;100.00
11038;BME280;5572;49.540;11.932;2022-09-01T02:38:20;98432.88;;;14.41;100.00
11038;BME280;5572;49.540;11.932;2022-09-01T02:40:51;98442.69;;;14.42;100.00
11038;BME280;5572;49.540;11.932;2022-09-01T02:43:19;98438.84;;;14.33;100.00
11038;BME280;5572;49.540;11.932;2022-09-01T02:45:46;98453.50;;;14.17;100.00
11038;BME280;5572;49.540;11.932;2022-09-01T02:48:16;98448.25;;;14.10;100.00
11038;BME280;5572;49.540;11.932;2022-09-01T02:50:43;98463.75;;;14.05;100.00
11038;BME280;5572;49.540;11.932;2022-09-01T02:53:11;98469.91;;;13.90;100.00
11038;BME280;5572;49.540;11.932;2022-09-01T02:55:40;98475.06;;;13.87;100.00
11038;BME280;5572;49.540;11.932;2022-09-01T02:58:07;98486.97;;;13.81;100.00
11038;BME280;5572;49.540;11.932;2022-09-01T03:00:35;98493.72;;;13.73;100.00
11038;BME280;5572;49.540;11.932;2022-09-01T03:03:01;98515.09;;;13.60;100.00
11038;BME280;5572;49.540;11.932;2022-09-01T03:05:30;98519.31;;;13.41;100.00
11038;BME280;5572;49.540;11.932;2022-09-01T03:07:59;98526.25;;;13.27;100.00
11038;BME280;5572;49.540;11.932;2022-09-01T03:10:29;98540.59;;;13.23;100.00
11038;BME280;5572;49.540;11.932;2022-09-01T03:13:00;98571.56;;;13.22;100.00
11038;BME280;5572;49.540;11.932;2022-09-01T03:15:28;98571.97;;;13.09;100.00
11038;BME280;5572;49.540;11.932;2022-09-01T03:17:55;98587.50;;;13.13;100.00
11038;BME280;5572;49.540;11.932;2022-09-01T03:20:25;98633.91;;;13.12;100.00
11038;BME280;5572;49.540;11.932;2022-09-01T03:22:52;98673.94;;;13.21;100.00
11038;BME280;5572;49.540;11.932;2022-09-01T03:25:21;98707.63;;;12.83;100.00
11038;BME280;5572;49.540;11.932;2022-09-01T03:27:50;98761.78;;;13.10;100.00
11038;BME280;5572;49.540;11.932;2022-09-01T03:30:17;98800.72;;;12.99;100.00
11038;BME280;5572;49.540;11.932;2022-09-01T03:32:45;98833.22;;;12.78;100.00
11038;BME280;5572;49.540;11.932;2022-09-01T03:35:12;98874.09;;;12.72;100.00
11038;BME280;5572;49.540;11.932;2022-09-01T03:37:39;98912.44;;;12.91;100.00
11038;BME280;5572;49.540;11.932;2022-09-01T03:40:09;98941.94;;;12.88;100.00
11038;BME280;5572;49.540;11.932;2022-09-01T03:42:36;98958.97;;;12.84;100.00
11038;BME280;5572;49.540;11.932;2022-09-01T03:45:05;98968.91;;;12.78;100.00
11038;BME280;5572;49.540;11.932;2022-09-01T03:47:37;98971.75;;;12.55;100.00
11038;BME280;5572;49.540;11.932;2022-09-01T03:50:06;98967.38;;;12.54;100.00
11038;BME280;5572;49.540;11.932;2022-09-01T03:52:34;98985.63;;;12.42;100.00
11038;BME280;5572;49.540;11.932;2022-09-01T03:55:04;99014.22;;;12.50;100.00
11038;BME280;5572;49.540;11.932;2022-09-01T03:57:30;99026.19;;;12.37;100.00
11038;BME280;5572;49.540;11.932;2022-09-01T03:59:58;99044.50;;;12.30;100.00
11038;BME280;5572;49.540;11.932;2022-09-01T04:02:26;99081.50;;;12.36;100.00
11038;BME280;5572;49.540;11.932;2022-09-01T04:04:54;99091.53;;;12.24;100.00
11038;BME280;5572;49.540;11.932;2022-09-01T04:07:23;99119.25;;;12.26;100.00
11038;BME280;5572;49.540;11.932;2022-09-01T04:09:50;99137.06;;;12.22;100.00
11038;BME280;5572;49.540;11.932;2022-09-01T04:12:16;99130.34;;;12.25;100.00
11038;BME280;5572;49.540;11.932;2022-09-01T04:14:43;99120.09;;;12.27;100.00
11038;BME280;5572;49.540;11.932;2022-09-01T04:17:12;99109.81;;;12.29;100.00
11038;BME280;5572;49.540;11.932;2022-09-01T04:19:57;99092.75;;;12.17;100.00
11038;BME280;5572;49.540;11.932;2022-09-01T04:22:27;99070.81;;;12.18;100.00
11038;BME280;5572;49.540;11.932;2022-09-01T04:24:56;99062.56;;;12.02;100.00
11038;BME280;5572;49.540;11.932;2022-09-01T04:27:24;99035.50;;;11.91;100.00
11038;BME280;5572;49.540;11.932;2022-09-01T04:29:51;99039.44;;;12.11;100.00
11038;BME280;5572;49.540;11.932;2022-09-01T04:32:17;99047.38;;;11.78;100.00
11038;BME280;5572;49.540;11.932;2022-09-01T04:34:45;99055.88;;;11.82;100.00
11038;BME280;5572;49.540;11.932;2022-09-01T04:37:15;99089.47;;;11.81;100.00
11038;BME280;5572;49.540;11.932;2022-09-01T04:39:47;99130.91;;;11.81;100.00
11038;BME280;5572;49.540;11.932;2022-09-01T04:42:16;99147.19;;;11.81;100.00
11038;BME280;5572;49.540;11.932;2022-09-01T04:44:45;99173.69;;;11.79;100.00
11038;BME280;5572;49.540;11.932;2022-09-01T04:47:13;99189.84;;;11.86;100.00
11038;BME280;5572;49.540;11.932;2022-09-01T04:49:41;99200.91;;;11.84;100.00
11038;BME280;5572;49.540;11.932;2022-09-01T04:52:10;99205.13;;;11.80;100.00
11038;BME280;5572;49.540;11.932;2022-09-01T04:57:15;99199.16;;;11.90;100.00
11038;BME280;5572;49.540;11.932;2022-09-01T04:59:43;99190.69;;;12.09;100.00
11038;BME280;5572;49.540;11.932;2022-09-01T05:02:11;99149.06;;;11.92;100.00
11038;BME280;5572;49.540;11.932;2022-09-01T05:04:40;99132.34;;;12.06;100.00
11038;BME280;5572;49.540;11.932;2022-09-01T05:07:11;99095.09;;;12.02;100.00
11038;BME280;5572;49.540;11.932;2022-09-01T05:09:42;99062.44;;;12.08;100.00
11038;BME280;5572;49.540;11.932;2022-09-01T05:12:11;99025.81;;;12.06;100.00
11038;BME280;5572;49.540;11.932;2022-09-01T05:14:42;99011.63;;;12.15;100.00
11038;BME280;5572;49.540;11.932;2022-09-01T05:19:49;98976.69;;;12.30;100.00
11038;BME280;5572;49.540;11.932;2022-09-01T05:22:17;98942.28;;;12.47;100.00
11038;BME280;5572;49.540;11.932;2022-09-01T05:24:47;98922.03;;;12.66;100.00
11038;BME280;5572;49.540;11.932;2022-09-01T05:27:17;98912.38;;;13.78;100.00
11038;BME280;5572;49.540;11.932;2022-09-01T05:29:47;98915.53;;;15.24;100.00
11038;BME280;5572;49.540;11.932;2022-09-01T05:32:15;98834.94;;;15.89;100.00
11038;BME280;5572;49.540;11.932;2022-09-01T05:34:43;98770.13;;;15.35;100.00
11038;BME280;5572;49.540;11.932;2022-09-01T05:37:11;98553.50;;;14.51;100.00
11038;BME280;5572;49.540;11.932;2022-09-01T05:39:41;98462.41;;;15.18;100.00
11038;BME280;5572;49.540;11.932;2022-09-01T05:42:08;98439.28;;;15.21;100.00
11038;BME280;5572;49.540;11.932;2022-09-01T05:44:38;98389.13;;;14.77;100.00
11038;BME280;5572;49.540;11.932;2022-09-01T05:47:11;98355.66;;;14.57;100.00
11038;BME280;5572;49.540;11.932;2022-09-01T05:49:40;98325.41;;;14.43;100.00
11038;BME280;5572;49.540;11.932;2022-09-01T05:52:09;98305.28;;;14.64;100.00
11038;BME280;5572;49.540;11.932;2022-09-01T05:54:37;98279.16;;;14.78;100.00
11038;BME280;5572;49.540;11.932;2022-09-01T06:10:22;98076.88;;;15.36;100.00
11038;BME280;5572;49.540;11.932;2022-09-01T06:12:50;98057.66;;;15.55;100.00
11038;BME280;5572;49.540;11.932;2022-09-01T06:15:18;98057.97;;;16.62;100.00
11038;BME280;5572;49.540;11.932;2022-09-01T06:17:47;98080.19;;;15.99;100.00
11038;BME280;5572;49.540;11.932;2022-09-01T06:20:15;98064.84;;;16.37;100.00
11038;BME280;5572;49.540;11.932;2022-09-01T06:22:43;98057.25;;;16.99;100.00
11038;BME280;5572;49.540;11.932;2022-09-01T06:25:12;98002.13;;;16.03;100.00
11038;BME280;5572;49.540;11.932;2022-09-01T06:27:45;97966.69;;;16.50;100.00
11038;BME280;5572;49.540;11.932;2022-09-01T06:30:14;97985.47;;;18.39;100.00
11038;BME280;5572;49.540;11.932;2022-09-01T06:32:46;97893.31;;;19.27;100.00
11038;BME280;5572;49.540;11.932;2022-09-01T06:35:15;97466.75;;;17.40;100.00
11038;BME280;5572;49.540;11.932;2022-09-01T06:40:19;97286.50;;;16.13;100.00
11038;BME280;5572;49.540;11.932;2022-09-01T06:42:50;97263.09;;;15.98;100.00
11038;BME280;5572;49.540;11.932;2022-09-01T06:45:20;97233.16;;;16.42;100.00
11038;BME280;5572;49.540;11.932;2022-09-01T06:47:49;97195.78;;;16.42;100.00
11038;BME280;5572;49.540;11.932;2022-09-01T06:50:19;97159.97;;;16.96;100.00
11038;BME280;5572;49.540;11.932;2022-09-01T06:52:48;97117.25;;;17.09;100.00
11038;BME280;5572;49.540;11.932;2022-09-01T06:55:26;97052.88;;;17.33;100.00
11038;BME280;5572;49.540;11.932;2022-09-01T06:58:00;97006.72;;;17.91;100.00
11038;BME280;5572;49.540;11.932;2022-09-01T07:00:31;96961.50;;;19.25;100.00
11038;BME280;5572;49.540;11.932;2022-09-01T07:03:00;96910.44;;;17.26;100.00
11038;BME280;5572;49.540;11.932;2022-09-01T07:05:36;96886.50;;;17.15;100.00
11038;BME280;5572;49.540;11.932;2022-09-01T07:08:05;96840.09;;;18.64;100.00
11038;BME280;5572;49.540;11.932;2022-09-01T07:10:39;96757.56;;;19.06;100.00
11038;BME280;5572;49.540;11.932;2022-09-01T07:13:13;96679.97;;;19.26;100.00
11038;BME280;5572;49.540;11.932;2022-09-01T07:15:46;96586.88;;;20.04;100.00
11038;BME280;5572;49.540;11.932;2022-09-01T07:18:15;96534.84;;;20.81;100.00
11038;BME280;5572;49.540;11.932;2022-09-01T07:20:44;96427.50;;;20.44;100.00
11038;BME280;5572;49.540;11.932;2022-09-01T07:23:14;96436.63;;;20.01;100.00
11038;BME280;5572;49.540;11.932;2022-09-01T07:25:45;96402.06;;;19.30;100.00
11038;BME280;5572;49.540;11.932;2022-09-01T07:28:16;96401.44;;;21.37;100.00
11038;BME280;5572;49.540;11.932;2022-09-01T07:30:48;96322.88;;;20.14;100.00
11038;BME280;5572;49.540;11.932;2022-09-01T07:33:19;96225.91;;;21.62;100.00
11038;BME280;5572;49.540;11.932;2022-09-01T07:35:50;96270.78;;;21.47;100.00
11038;BME280;5572;49.540;11.932;2022-09-01T09:40:03;95894.94;;;19.87;100.00
11038;BME280;5572;49.540;11.932;2022-09-01T09:42:33;95825.72;;;19.33;100.00
11038;BME280;5572;49.540;11.932;2022-09-01T09:45:01;95854.88;;;19.22;100.00
11038;BME280;5572;49.540;11.932;2022-09-01T09:47:38;95958.47;;;19.89;100.00
11038;BME280;5572;49.540;11.932;2022-09-01T09:50:13;95669.41;;;19.07;100.00
11038;BME280;5572;49.540;11.932;2022-09-01T09:52:44;95800.94;;;19.26;100.00
11038;BME280;5572;49.540;11.932;2022-09-01T09:55:23;95860.56;;;19.52;100.00
11038;BME280;5572;49.540;11.932;2022-09-01T09:57:54;95690.53;;;19.26;100.00
11038;BME280;5572;49.540;11.932;2022-09-01T10:00:26;95746.56;;;19.28;100.00
11038;BME280;5572;49.540;11.932;2022-09-01T10:02:57;95793.34;;;19.39;100.00
11038;BME280;5572;49.540;11.932;2022-09-01T10:05:34;95756.03;;;19.98;100.00
11038;BME280;5572;49.540;11.932;2022-09-01T10:08:04;95661.91;;;19.72;100.00
11038;BME280;5572;49.540;11.932;2022-09-01T10:10:40;95631.28;;;19.66;100.00
11038;BME280;5572;49.540;11.932;2022-09-01T10:13:12;95551.44;;;19.45;100.00
11038;BME280;5572;49.540;11.932;2022-09-01T10:15:42;95603.13;;;19.69;100.00
11038;BME280;5572;49.540;11.932;2022-09-01T10:18:17;95475.84;;;19.15;100.00
11038;BME280;5572;49.540;11.932;2022-09-01T10:20:55;95580.22;;;19.32;100.00
11038;BME280;5572;49.540;11.932;2022-09-01T10:23:25;95763.56;;;19.37;100.00
11038;BME280;5572;49.540;11.932;2022-09-01T10:26:01;95767.50;;;19.40;100.00
11038;BME280;5572;49.540;11.932;2022-09-01T10:28:31;95807.34;;;19.97;100.00
11038;BME280;5572;49.540;11.932;2022-09-01T10:31:00;95739.84;;;20.15;100.00
11038;BME280;5572;49.540;11.932;2022-09-01T10:33:29;95541.25;;;20.70;100.00
11038;BME280;5572;49.540;11.932;2022-09-01T10:35:57;95480.44;;;21.15;100.00
11038;BME280;5572;49.540;11.932;2022-09-01T10:38:27;95206.75;;;19.79;100.00
11038;BME280;5572;49.540;11.932;2022-09-01T10:40:59;95401.44;;;20.11;100.00
11038;BME280;5572;49.540;11.932;2022-09-01T10:43:38;95291.56;;;19.97;100.00
11038;BME280;5572;49.540;11.932;2022-09-01T10:46:09;95363.91;;;19.83;100.00
11038;BME280;5572;49.540;11.932;2022-09-01T12:11:51;94780.53;;;19.93;100.00
11038;BME280;5572;49.540;11.932;2022-09-01T12:14:21;94802.06;;;19.95;100.00
11038;BME280;5572;49.540;11.932;2022-09-01T12:16:58;95236.25;;;20.46;100.00
11038;BME280;5572;49.540;11.932;2022-09-01T12:19:28;95481.47;;;20.53;100.00
11038;BME280;5572;49.540;11.932;2022-09-01T12:21:59;95470.19;;;21.08;100.00
11038;BME280;5572;49.540;11.932;2022-09-01T12:24:31;95245.19;;;20.96;100.00
11038;BME280;5572;49.540;11.932;2022-09-01T12:27:03;94913.88;;;20.57;100.00
11038;BME280;5572;49.540;11.932;2022-09-01T12:29:32;94818.13;;;20.97;100.00
11038;BME280;5572;49.540;11.932;2022-09-01T12:32:00;94844.06;;;20.89;100.00
11038;BME280;5572;49.540;11.932;2022-09-01T12:34:37;94682.31;;;20.98;100.00
11038;BME280;5572;49.540;11.932;2022-09-01T12:37:09;94449.72;;;20.81;100.00
11038;BME280;5572;49.540;11.932;2022-09-01T12:39:39;94509.25;;;21.82;100.00
11038;BME280;5572;49.540;11.932;2022-09-01T12:42:23;94194.97;;;21.75;100.00
11038;BME280;5572;49.540;11.932;2022-09-01T12:44:53;94291.75;;;22.46;100.00
11038;BME280;5572;49.540;11.932;2022-09-01T12:52:34;94109.97;;;23.04;100.00
11038;BME280;5572;49.540;11.932;2022-09-01T12:55:14;94039.81;;;23.56;100.00
11038;BME280;5572;49.540;11.932;2022-09-01T12:57:49;93404.47;;;22.29;100.00
11038;BME280;5572;49.540;11.932;2022-09-01T13:00:20;93954.31;;;22.60;100.00
11038;BME280;5572;49.540;11.932;2022-09-01T13:02:49;94101.66;;;23.23;100.00
11038;BME280;5572;49.540;11.932;2022-09-01T13:05:19;93943.69;;;22.43;100.00
11038;BME280;5572;49.540;11.932;2022-09-01T13:07:47;94134.59;;;21.91;100.00
11038;BME280;5572;49.540;11.932;2022-09-01T13:10:15;94371.34;;;21.80;100.00
11038;BME280;5572;49.540;11.932;2022-09-01T13:12:43;94108.97;;;20.95;100.00
11038;BME280;5572;49.540;11.932;2022-09-01T13:15:13;94125.72;;;21.04;100.00
11038;BME280;5572;49.540;11.932;2022-09-01T13:17:41;94248.59;;;21.34;100.00
11038;BME280;5572;49.540;11.932;2022-09-01T13:20:10;94546.88;;;21.92;100.00
11038;BME280;5572;49.540;11.932;2022-09-01T13:22:39;94328.03;;;21.55;100.00
11038;BME280;5572;49.540;11.932;2022-09-01T13:25:09;94439.59;;;21.59;100.00
11038;BME280;5572;49.540;11.932;2022-09-01T13:27:38;94239.50;;;21.37;100.00
11038;BME280;5572;49.540;11.932;2022-09-01T13:30:10;93934.72;;;20.96;100.00
11038;BME280;5572;49.540;11.932;2022-09-01T13:32:40;93973.16;;;21.42;100.00
11038;BME280;5572;49.540;11.932;2022-09-01T13:35:09;94348.03;;;22.90;100.00
11038;BME280;5572;49.540;11.932;2022-09-01T13:37:37;93910.06;;;22.83;100.00
11038;BME280;5572;49.540;11.932;2022-09-01T13:40:06;93827.06;;;21.24;100.00
11038;BME280;5572;49.540;11.932;2022-09-01T13:42:41;93799.00;;;21.52;100.00
11038;BME280;5572;49.540;11.932;2022-09-01T13:45:10;93583.56;;;21.30;100.00
11038;BME280;5572;49.540;11.932;2022-09-01T13:47:40;93641.47;;;21.20;100.00
11038;BME280;5572;49.540;11.932;2022-09-01T13:50:10;94404.47;;;21.33;100.00
11038;BME280;5572;49.540;11.932;2022-09-01T13:52:38;93913.41;;;20.81;100.00
11038;BME280;5572;49.540;11.932;2022-09-01T13:55:09;93896.69;;;21.60;100.00
11038;BME280;5572;49.540;11.932;2022-09-01T13:57:38;94135.22;;;21.53;100.00
11038;BME280;5572;49.540;11.932;2022-09-01T14:00:09;94084.13;;;21.29;100.00
11038;BME280;5572;49.540;11.932;2022-09-01T14:02:38;93794.50;;;20.84;100.00
11038;BME280;5572;49.540;11.932;2022-09-01T14:05:08;93977.66;;;21.10;100.00
11038;BME280;5572;49.540;11.932;2022-09-01T14:07:37;93977.25;;;21.34;100.00
11038;BME280;5572;49.540;11.932;2022-09-01T14:10:06;93718.03;;;21.02;100.00
11038;BME280;5572;49.540;11.932;2022-09-01T14:12:34;93977.91;;;21.65;100.00
11038;BME280;5572;49.540;11.932;2022-09-01T14:15:02;94411.31;;;21.88;100.00
11038;BME280;5572;49.540;11.932;2022-09-01T14:17:31;94011.84;;;21.55;100.00
11038;BME280;5572;49.540;11.932;2022-09-01T14:19:58;94123.53;;;21.45;100.00
11038;BME280;5572;49.540;11.932;2022-09-01T14:22:27;93936.16;;;21.47;100.00
11038;BME280;5572;49.540;11.932;2022-09-01T14:24:55;94245.69;;;21.74;100.00
11038;BME280;5572;49.540;11.932;2022-09-01T14:42:57;93345.75;;;20.97;100.00
11038;BME280;5572;49.540;11.932;2022-09-01T14:45:27;93512.94;;;21.11;100.00
11038;BME280;5572;49.540;11.932;2022-09-01T14:47:58;93862.78;;;21.05;100.00
11038;BME280;5572;49.540;11.932;2022-09-01T14:50:27;93697.25;;;21.01;100.00
11038;BME280;5572;49.540;11.932;2022-09-01T14:52:58;94027.38;;;21.19;100.00
11038;BME280;5572;49.540;11.932;2022-09-01T14:55:27;94232.72;;;21.97;100.00
11038;BME280;5572;49.540;11.932;2022-09-01T14:57:58;93661.78;;;21.77;100.00
11038;BME280;5572;49.540;11.932;2022-09-01T15:00:26;93893.88;;;21.41;100.00
11038;BME280;5572;49.540;11.932;2022-09-01T15:02:57;94134.47;;;21.22;100.00
11038;BME280;5572;49.540;11.932;2022-09-01T15:05:25;93549.44;;;21.12;100.00
11038;BME280;5572;49.540;11.932;2022-09-01T15:13:03;93407.53;;;21.66;100.00
11038;BME280;5572;49.540;11.932;2022-09-01T15:15:31;93340.75;;;21.77;100.00
11038;BME280;5572;49.540;11.932;2022-09-01T15:20:39;93278.28;;;21.66;100.00
11038;BME280;5572;49.540;11.932;2022-09-01T15:23:15;93349.47;;;21.48;100.00
11038;BME280;5572;49.540;11.932;2022-09-01T15:25:43;93001.00;;;21.30;100.00
11038;BME280;5572;49.540;11.932;2022-09-01T15:28:14;93052.06;;;21.65;100.00
11038;BME280;5572;49.540;11.932;2022-09-01T15:30:43;92952.06;;;21.38;100.00
11038;BME280;5572;49.540;11.932;2022-09-01T15:33:12;92973.38;;;21.46;100.00
11038;BME280;5572;49.540;11.932;2022-09-01T15:35:41;93068.53;;;21.77;100.00
11038;BME280;5572;49.540;11.932;2022-09-01T15:38:10;93268.66;;;21.45;100.00
11038;BME280;5572;49.540;11.932;2022-09-01T15:40:40;93131.66;;;21.31;100.00
11038;BME280;5572;49.540;11.932;2022-09-01T15:43:09;93157.84;;;21.48;100.00
11038;BME280;5572;49.540;11.932;2022-09-01T15:45:39;93041.06;;;21.65;100.00
11038;BME280;5572;49.540;11.932;2022-09-01T15:48:08;93139.81;;;21.47;100.00
11038;BME280;5572;49.540;11.932;2022-09-01T15:50:36;93213.06;;;21.66;100.00
11038;BME280;5572;49.540;11.932;2022-09-01T15:53:06;93185.19;;;21.27;100.00
11038;BME280;5572;49.540;11.932;2022-09-01T15:55:38;93355.78;;;21.32;100.00
11038;BME280;5572;49.540;11.932;2022-09-01T15:58:07;93116.81;;;21.16;100.00
11038;BME280;5572;49.540;11.932;2022-09-01T16:00:36;93504.50;;;21.66;100.00
11038;BME280;5572;49.540;11.932;2022-09-01T16:03:06;93389.66;;;21.98;100.00
11038;BME280;5572;49.540;11.932;2022-09-01T16:05:35;93473.63;;;21.30;100.00
11038;BME280;5572;49.540;11.932;2022-09-01T16:08:05;93448.06;;;21.62;100.00
11038;BME280;5572;49.540;11.932;2022-09-01T16:10:35;93276.91;;;21.17;100.00
11038;BME280;5572;49.540;11.932;2022-09-01T16:13:04;93436.19;;;21.04;100.00
11038;BME280;5572;49.540;11.932;2022-09-01T16:15:33;93647.16;;;21.13;100.00
11038;BME280;5572;49.540;11.932;2022-09-01T16:21:00;93562.50;;;21.40;100.00
11038;BME280;5572;49.540;11.932;2022-09-01T16:23:36;93576.94;;;21.44;100.00
11038;BME280;5572;49.540;11.932;2022-09-01T16:26:06;93382.88;;;21.18;100.00
11038;BME280;5572;49.540;11.932;2022-09-01T16:28:36;93430.03;;;20.84;100.00
11038;BME280;5572;49.540;11.932;2022-09-01T16:31:09;93636.63;;;20.92;100.00
11038;BME280;5572;49.540;11.932;2022-09-01T16:33:38;93791.84;;;20.77;100.00
11038;BME280;5572;49.540;11.932;2022-09-01T16:39:23;94065.13;;;20.88;100.00
11038;BME280;5572;49.540;11.932;2022-09-01T16:42:00;93797.16;;;20.65;100.00
11038;BME280;5572;49.540;11.932;2022-09-01T16:44:39;93518.16;;;20.55;100.00
11038;BME280;5572;49.540;11.932;2022-09-01T16:50:10;93466.78;;;20.55;100.00
11038;BME280;5572;49.540;11.932;2022-09-01T16:55:37;93240.38;;;20.31;100.00
11038;BME280;5572;49.540;11.932;2022-09-01T16:58:13;93186.31;;;20.16;100.00
11038;BME280;5572;49.540;11.932;2022-09-01T17:00:55;93410.06;;;19.97;100.00
11038;BME280;5572;49.540;11.932;2022-09-01T17:03:31;93171.34;;;20.04;100.00
11038;BME280;5572;49.540;11.932;2022-09-01T17:06:03;93093.88;;;20.00;100.00
11038;BME280;5572;49.540;11.932;2022-09-01T17:08:48;93050.84;;;19.97;100.00
11038;BME280;5572;49.540;11.932;2022-09-01T17:11:25;93065.72;;;19.68;100.00
11038;BME280;5572;49.540;11.932;2022-09-01T17:13:52;93101.50;;;19.77;100.00
11038;BME280;5572;49.540;11.932;2022-09-01T17:16:23;93145.53;;;19.54;100.00
11038;BME280;5572;49.540;11.932;2022-09-01T17:18:54;93210.00;;;19.59;100.00
11038;BME280;5572;49.540;11.932;2022-09-01T17:21:23;93297.75;;;19.20;100.00
11038;BME280;5572;49.540;11.932;2022-09-01T17:23:56;93433.72;;;19.30;100.00
11038;BME280;5572;49.540;11.932;2022-09-01T17:26:27;93456.72;;;19.13;100.00
11038;BME280;5572;49.540;11.932;2022-09-01T17:28:55;93677.38;;;18.81;100.00
11038;BME280;5572;49.540;11.932;2022-09-01T17:31:46;93778.75;;;18.70;100.00
11038;BME280;5572;49.540;11.932;2022-09-01T17:34:34;93888.63;;;18.69;100.00